sensor_id;sensor_type;location;lat;lon;timestamp;P1;durP1;ratioP1;P2;durP2;ratioP2
12756;SDS011;31601;48.042;12.240;2023-06-10T00:02:21;6.57;;;5.97;;
12756;SDS011;31601;48.042;12.240;2023-06-10T00:04:47;6.50;;;5.90;;
12756;SDS011;31601;48.042;12.240;2023-06-10T00:07:15;7.67;;;6.20;;
12756;SDS011;31601;48.042;12.240;2023-06-10T00:09:42;7.60;;;6.80;;
12756;SDS011;31601;48.042;12.240;2023-06-10T00:12:09;7.80;;;6.13;;
12756;SDS011;31601;48.042;12.240;2023-06-10T00:14:36;7.07;;;5.90;;
12756;SDS011;31601;48.042;12.240;2023-06-10T00:17:03;7.60;;;6.30;;
12756;SDS011;31601;48.042;12.240;2023-06-10T00:19:34;7.43;;;6.20;;
12756;SDS011;31601;48.042;12.240;2023-06-10T00:22:01;7.53;;;6.10;;
12756;SDS011;31601;48.042;12.240;2023-06-10T00:24:28;6.80;;;6.10;;
12756;SDS011;31601;48.042;12.240;2023-06-10T00:26:55;6.37;;;5.77;;
12756;SDS011;31601;48.042;12.240;2023-06-10T00:29:22;7.43;;;6.67;;
12756;SDS011;31601;48.042;12.240;2023-06-10T00:31:48;7.80;;;7.00;;
12756;SDS011;31601;48.042;12.240;2023-06-10T00:34:15;8.10;;;7.40;;
12756;SDS011;31601;48.042;12.240;2023-06-10T00:36:41;8.50;;;6.60;;
12756;SDS011;31601;48.042;12.240;2023-06-10T00:39:08;7.63;;;6.40;;
12756;SDS011;31601;48.042;12.240;2023-06-10T00:41:34;7.30;;;6.53;;
12756;SDS011;31601;48.042;12.240;2023-06-10T00:44:02;7.33;;;6.63;;
12756;SDS011;31601;48.042;12.240;2023-06-10T00:46:29;7.90;;;7.10;;
12756;SDS011;31601;48.042;12.240;2023-06-10T00:48:57;7.80;;;7.00;;
12756;SDS011;31601;48.042;12.240;2023-06-10T00:51:23;9.73;;;6.87;;
12756;SDS011;31601;48.042;12.240;2023-06-10T00:53:51;8.40;;;7.60;;
12756;SDS011;31601;48.042;12.240;2023-06-10T00:56:18;10.97;;;7.43;;
12756;SDS011;31601;48.042;12.240;2023-06-10T00:58:46;9.00;;;7.10;;
12756;SDS011;31601;48.042;12.240;2023-06-10T01:01:15;7.87;;;7.07;;
12756;SDS011;31601;48.042;12.240;2023-06-10T01:03:41;7.90;;;7.17;;
12756;SDS011;31601;48.042;12.240;2023-06-10T01:06:09;8.20;;;7.37;;
12756;SDS011;31601;48.042;12.240;2023-06-10T01:08:45;9.40;;;7.60;;
12756;SDS011;31601;48.042;12.240;2023-06-10T01:11:21;8.20;;;7.40;;
12756;SDS011;31601;48.042;12.240;2023-06-10T01:13:51;8.83;;;7.93;;
12756;SDS011;31601;48.042;12.240;2023-06-10T01:16:23;8.30;;;7.40;;
12756;SDS011;31601;48.042;12.240;2023-06-10T01:18:50;7.97;;;7.17;;
12756;SDS011;31601;48.042;12.240;2023-06-10T01:21:20;7.70;;;7.00;;
12756;SDS011;31601;48.042;12.240;2023-06-10T01:23:50;7.80;;;7.10;;
12756;SDS011;31601;48.042;12.240;2023-06-10T01:26:17;7.77;;;6.90;;
12756;SDS011;31601;48.042;12.240;2023-06-10T01:28:47;7.77;;;6.50;;
12756;SDS011;31601;48.042;12.240;2023-06-10T01:31:20;7.43;;;6.60;;
12756;SDS011;31601;48.042;12.240;2023-06-10T01:33:58;7.37;;;6.60;;
12756;SDS011;31601;48.042;12.240;2023-06-10T01:36:28;7.90;;;7.20;;
12756;SDS011;31601;48.042;12.240;2023-06-10T01:38:56;9.17;;;7.63;;
12756;SDS011;31601;48.042;12.240;2023-06-10T01:41:24;8.50;;;7.70;;
12756;SDS011;31601;48.042;12.240;2023-06-10T01:43:51;9.07;;;7.67;;
12756;SDS011;31601;48.042;12.240;2023-06-10T01:46:17;8.23;;;7.30;;
12756;SDS011;31601;48.042;12.240;2023-06-10T01:48:47;8.87;;;7.90;;
12756;SDS011;31601;48.042;12.240;2023-06-10T01:51:13;9.80;;;8.27;;
12756;SDS011;31601;48.042;12.240;2023-06-10T01:53:41;8.23;;;7.43;;
12756;SDS011;31601;48.042;12.240;2023-06-10T01:56:08;8.23;;;7.43;;
12756;SDS011;31601;48.042;12.240;2023-06-10T01:58:34;8.50;;;7.70;;
12756;SDS011;31601;48.042;12.240;2023-06-10T02:01:01;9.23;;;8.17;;
12756;SDS011;31601;48.042;12.240;2023-06-10T02:03:28;9.03;;;8.13;;
12756;SDS011;31601;48.042;12.240;2023-06-10T02:05:54;8.73;;;7.93;;
12756;SDS011;31601;48.042;12.240;2023-06-10T02:08:20;9.10;;;8.00;;
12756;SDS011;31601;48.042;12.240;2023-06-10T02:10:48;8.80;;;7.90;;
12756;SDS011;31601;48.042;12.240;2023-06-10T02:13:15;9.40;;;8.47;;
12756;SDS011;31601;48.042;12.240;2023-06-10T02:15:41;9.13;;;8.23;;
12756;SDS011;31601;48.042;12.240;2023-06-10T02:18:07;8.77;;;7.97;;
12756;SDS011;31601;48.042;12.240;2023-06-10T02:20:35;8.87;;;8.07;;
12756;SDS011;31601;48.042;12.240;2023-06-10T02:23:01;9.57;;;8.37;;
12756;SDS011;31601;48.042;12.240;2023-06-10T02:25:28;8.20;;;7.47;;
12756;SDS011;31601;48.042;12.240;2023-06-10T02:27:56;9.73;;;8.70;;
12756;SDS011;31601;48.042;12.240;2023-06-10T02:30:22;11.90;;;8.77;;
12756;SDS011;31601;48.042;12.240;2023-06-10T02:32:49;9.33;;;8.33;;
12756;SDS011;31601;48.042;12.240;2023-06-10T02:35:15;11.43;;;8.97;;
12756;SDS011;31601;48.042;12.240;2023-06-10T02:37:42;9.13;;;8.17;;
12756;SDS011;31601;48.042;12.240;2023-06-10T02:40:09;9.47;;;8.17;;
12756;SDS011;31601;48.042;12.240;2023-06-10T02:42:36;9.13;;;8.23;;
12756;SDS011;31601;48.042;12.240;2023-06-10T02:45:04;9.93;;;8.43;;
12756;SDS011;31601;48.042;12.240;2023-06-10T02:47:31;9.47;;;8.47;;
12756;SDS011;31601;48.042;12.240;2023-06-10T02:49:58;9.30;;;8.40;;
12756;SDS011;31601;48.042;12.240;2023-06-10T02:52:24;9.17;;;7.90;;
12756;SDS011;31601;48.042;12.240;2023-06-10T02:54:51;11.13;;;8.10;;
12756;SDS011;31601;48.042;12.240;2023-06-10T02:57:17;9.43;;;7.40;;
12756;SDS011;31601;48.042;12.240;2023-06-10T02:59:44;8.60;;;7.80;;
12756;SDS011;31601;48.042;12.240;2023-06-10T03:02:11;10.57;;;8.07;;
12756;SDS011;31601;48.042;12.240;2023-06-10T03:04:38;8.57;;;7.53;;
12756;SDS011;31601;48.042;12.240;2023-06-10T03:07:06;8.63;;;7.73;;
12756;SDS011;31601;48.042;12.240;2023-06-10T03:09:33;8.43;;;7.63;;
12756;SDS011;31601;48.042;12.240;2023-06-10T03:11:59;9.00;;;7.83;;
12756;SDS011;31601;48.042;12.240;2023-06-10T03:14:26;9.43;;;8.53;;
12756;SDS011;31601;48.042;12.240;2023-06-10T03:16:53;8.77;;;7.93;;
12756;SDS011;31601;48.042;12.240;2023-06-10T03:19:20;9.40;;;8.37;;
12756;SDS011;31601;48.042;12.240;2023-06-10T03:21:49;8.67;;;7.80;;
12756;SDS011;31601;48.042;12.240;2023-06-10T03:24:16;9.33;;;8.43;;
12756;SDS011;31601;48.042;12.240;2023-06-10T03:26:42;9.20;;;8.37;;
12756;SDS011;31601;48.042;12.240;2023-06-10T03:29:08;9.03;;;8.20;;
12756;SDS011;31601;48.042;12.240;2023-06-10T03:31:35;9.57;;;8.50;;
12756;SDS011;31601;48.042;12.240;2023-06-10T03:34:03;9.70;;;8.80;;
12756;SDS011;31601;48.042;12.240;2023-06-10T03:36:31;9.17;;;8.37;;
12756;SDS011;31601;48.042;12.240;2023-06-10T03:38:57;9.50;;;8.57;;
12756;SDS011;31601;48.042;12.240;2023-06-10T03:41:24;8.77;;;7.97;;
12756;SDS011;31601;48.042;12.240;2023-06-10T03:43:50;10.90;;;9.90;;
12756;SDS011;31601;48.042;12.240;2023-06-10T03:46:17;11.40;;;10.30;;
12756;SDS011;31601;48.042;12.240;2023-06-10T03:48:44;10.80;;;9.70;;
12756;SDS011;31601;48.042;12.240;2023-06-10T03:51:10;10.60;;;9.23;;
12756;SDS011;31601;48.042;12.240;2023-06-10T03:53:38;11.13;;;10.00;;
12756;SDS011;31601;48.042;12.240;2023-06-10T03:56:04;10.30;;;9.30;;
12756;SDS011;31601;48.042;12.240;2023-06-10T03:58:31;10.87;;;9.80;;
12756;SDS011;31601;48.042;12.240;2023-06-10T04:00:57;11.07;;;9.97;;
12756;SDS011;31601;48.042;12.240;2023-06-10T04:03:24;10.80;;;9.70;;
12756;SDS011;31601;48.042;12.240;2023-06-10T04:05:51;11.93;;;9.73;;
12756;SDS011;31601;48.042;12.240;2023-06-10T04:08:17;10.13;;;9.17;;
12756;SDS011;31601;48.042;12.240;2023-06-10T04:10:45;9.73;;;8.57;;
12756;SDS011;31601;48.042;12.240;2023-06-10T04:13:11;11.30;;;9.90;;
12756;SDS011;31601;48.042;12.240;2023-06-10T04:15:39;11.00;;;10.00;;
12756;SDS011;31601;48.042;12.240;2023-06-10T04:18:06;11.30;;;9.70;;
12756;SDS011;31601;48.042;12.240;2023-06-10T04:20:33;11.80;;;10.70;;
12756;SDS011;31601;48.042;12.240;2023-06-10T04:22:59;13.33;;;11.07;;
12756;SDS011;31601;48.042;12.240;2023-06-10T04:25:26;11.70;;;10.50;;
12756;SDS011;31601;48.042;12.240;2023-06-10T04:27:55;12.17;;;10.13;;
12756;SDS011;31601;48.042;12.240;2023-06-10T04:30:21;11.50;;;10.40;;
12756;SDS011;31601;48.042;12.240;2023-06-10T04:32:47;12.90;;;11.10;;
12756;SDS011;31601;48.042;12.240;2023-06-10T04:35:14;11.53;;;10.33;;
12756;SDS011;31601;48.042;12.240;2023-06-10T04:37:41;11.43;;;10.00;;
12756;SDS011;31601;48.042;12.240;2023-06-10T04:40:08;12.67;;;10.23;;
12756;SDS011;31601;48.042;12.240;2023-06-10T04:42:35;11.47;;;10.27;;
12756;SDS011;31601;48.042;12.240;2023-06-10T04:45:04;12.30;;;11.10;;
12756;SDS011;31601;48.042;12.240;2023-06-10T04:47:31;11.37;;;10.27;;
12756;SDS011;31601;48.042;12.240;2023-06-10T04:49:58;11.63;;;10.52;;
12756;SDS011;31601;48.042;12.240;2023-06-10T04:52:24;12.53;;;11.33;;
12756;SDS011;31601;48.042;12.240;2023-06-10T04:54:50;11.33;;;10.17;;
12756;SDS011;31601;48.042;12.240;2023-06-10T04:57:17;11.83;;;10.67;;
12756;SDS011;31601;48.042;12.240;2023-06-10T04:59:45;11.90;;;10.70;;
12756;SDS011;31601;48.042;12.240;2023-06-10T05:02:13;13.37;;;12.07;;
12756;SDS011;31601;48.042;12.240;2023-06-10T05:04:39;12.30;;;11.10;;
12756;SDS011;31601;48.042;12.240;2023-06-10T05:07:06;12.60;;;11.33;;
12756;SDS011;31601;48.042;12.240;2023-06-10T05:09:32;14.13;;;11.80;;
12756;SDS011;31601;48.042;12.240;2023-06-10T05:11:59;12.67;;;11.40;;
12756;SDS011;31601;48.042;12.240;2023-06-10T05:14:25;13.17;;;11.73;;
12756;SDS011;31601;48.042;12.240;2023-06-10T05:16:52;11.97;;;10.77;;
12756;SDS011;31601;48.042;12.240;2023-06-10T05:19:20;13.75;;;10.60;;
12756;SDS011;31601;48.042;12.240;2023-06-10T05:21:46;13.48;;;12.07;;
12756;SDS011;31601;48.042;12.240;2023-06-10T05:24:13;14.93;;;11.05;;
12756;SDS011;31601;48.042;12.240;2023-06-10T05:26:39;12.63;;;11.43;;
12756;SDS011;31601;48.042;12.240;2023-06-10T05:29:06;12.20;;;10.98;;
12756;SDS011;31601;48.042;12.240;2023-06-10T05:31:34;12.85;;;11.13;;
12756;SDS011;31601;48.042;12.240;2023-06-10T05:34:00;13.63;;;11.05;;
12756;SDS011;31601;48.042;12.240;2023-06-10T05:36:28;12.60;;;10.23;;
12756;SDS011;31601;48.042;12.240;2023-06-10T05:38:54;12.13;;;10.88;;
12756;SDS011;31601;48.042;12.240;2023-06-10T05:41:21;12.35;;;10.40;;
12756;SDS011;31601;48.042;12.240;2023-06-10T05:43:48;11.57;;;10.38;;
12756;SDS011;31601;48.042;12.240;2023-06-10T05:46:14;11.45;;;10.25;;
12756;SDS011;31601;48.042;12.240;2023-06-10T05:48:41;11.45;;;10.07;;
12756;SDS011;31601;48.042;12.240;2023-06-10T05:51:07;11.00;;;10.00;;
12756;SDS011;31601;48.042;12.240;2023-06-10T05:53:35;10.95;;;9.82;;
12756;SDS011;31601;48.042;12.240;2023-06-10T05:56:01;10.77;;;9.77;;
12756;SDS011;31601;48.042;12.240;2023-06-10T05:58:28;10.18;;;9.23;;
12756;SDS011;31601;48.042;12.240;2023-06-10T06:00:54;9.60;;;8.60;;
12756;SDS011;31601;48.042;12.240;2023-06-10T06:03:21;10.38;;;9.00;;
12756;SDS011;31601;48.042;12.240;2023-06-10T06:05:47;9.90;;;8.90;;
12756;SDS011;31601;48.042;12.240;2023-06-10T06:08:13;10.05;;;8.52;;
12756;SDS011;31601;48.042;12.240;2023-06-10T06:10:44;9.50;;;8.52;;
12756;SDS011;31601;48.042;12.240;2023-06-10T06:13:12;8.18;;;7.40;;
12756;SDS011;31601;48.042;12.240;2023-06-10T06:15:39;7.55;;;6.65;;
12756;SDS011;31601;48.042;12.240;2023-06-10T06:18:05;9.65;;;7.25;;
12756;SDS011;31601;48.042;12.240;2023-06-10T06:20:32;7.20;;;6.50;;
12756;SDS011;31601;48.042;12.240;2023-06-10T06:22:58;7.35;;;6.65;;
12756;SDS011;31601;48.042;12.240;2023-06-10T06:25:24;7.30;;;6.60;;
12756;SDS011;31601;48.042;12.240;2023-06-10T06:27:52;7.38;;;6.43;;
12756;SDS011;31601;48.042;12.240;2023-06-10T06:30:19;9.13;;;5.93;;
12756;SDS011;31601;48.042;12.240;2023-06-10T06:32:45;6.57;;;5.88;;
12756;SDS011;31601;48.042;12.240;2023-06-10T06:35:11;6.75;;;6.05;;
12756;SDS011;31601;48.042;12.240;2023-06-10T06:37:38;6.38;;;5.80;;
12756;SDS011;31601;48.042;12.240;2023-06-10T06:40:05;8.60;;;6.13;;
12756;SDS011;31601;48.042;12.240;2023-06-10T06:42:32;6.68;;;5.97;;
12756;SDS011;31601;48.042;12.240;2023-06-10T06:45:00;6.38;;;5.78;;
12756;SDS011;31601;48.042;12.240;2023-06-10T06:47:26;8.45;;;5.88;;
12756;SDS011;31601;48.042;12.240;2023-06-10T06:49:52;6.38;;;5.78;;
12756;SDS011;31601;48.042;12.240;2023-06-10T06:52:19;6.53;;;5.72;;
12756;SDS011;31601;48.042;12.240;2023-06-10T06:54:47;6.10;;;5.60;;
12756;SDS011;31601;48.042;12.240;2023-06-10T06:57:13;6.78;;;5.80;;
12756;SDS011;31601;48.042;12.240;2023-06-10T06:59:40;6.68;;;6.07;;
12756;SDS011;31601;48.042;12.240;2023-06-10T07:02:07;5.80;;;5.30;;
12756;SDS011;31601;48.042;12.240;2023-06-10T07:04:34;5.65;;;5.15;;
12756;SDS011;31601;48.042;12.240;2023-06-10T07:07:01;6.30;;;5.70;;
12756;SDS011;31601;48.042;12.240;2023-06-10T07:09:27;6.80;;;5.93;;
12756;SDS011;31601;48.042;12.240;2023-06-10T07:11:54;6.28;;;5.68;;
12756;SDS011;31601;48.042;12.240;2023-06-10T07:14:20;6.60;;;5.88;;
12756;SDS011;31601;48.042;12.240;2023-06-10T07:16:47;6.75;;;6.15;;
12756;SDS011;31601;48.042;12.240;2023-06-10T07:19:15;7.38;;;6.40;;
12756;SDS011;31601;48.042;12.240;2023-06-10T07:21:42;6.18;;;5.60;;
12756;SDS011;31601;48.042;12.240;2023-06-10T07:24:08;6.10;;;5.25;;
12756;SDS011;31601;48.042;12.240;2023-06-10T07:26:35;5.70;;;5.20;;
12756;SDS011;31601;48.042;12.240;2023-06-10T07:29:01;6.82;;;5.68;;
12756;SDS011;31601;48.042;12.240;2023-06-10T07:31:28;7.97;;;5.88;;
12756;SDS011;31601;48.042;12.240;2023-06-10T07:33:54;6.18;;;5.68;;
12756;SDS011;31601;48.042;12.240;2023-06-10T07:36:22;5.70;;;5.18;;
12756;SDS011;31601;48.042;12.240;2023-06-10T07:38:48;6.80;;;4.97;;
12756;SDS011;31601;48.042;12.240;2023-06-10T07:41:15;6.72;;;5.75;;
12756;SDS011;31601;48.042;12.240;2023-06-10T07:43:42;7.13;;;5.65;;
12756;SDS011;31601;48.042;12.240;2023-06-10T07:46:09;10.68;;;5.93;;
12756;SDS011;31601;48.042;12.240;2023-06-10T07:48:35;5.68;;;5.15;;
12756;SDS011;31601;48.042;12.240;2023-06-10T07:51:02;6.45;;;5.82;;
12756;SDS011;31601;48.042;12.240;2023-06-10T07:53:30;7.25;;;5.68;;
12756;SDS011;31601;48.042;12.240;2023-06-10T07:55:56;8.55;;;6.20;;
12756;SDS011;31601;48.042;12.240;2023-06-10T07:58:22;6.82;;;6.18;;
12756;SDS011;31601;48.042;12.240;2023-06-10T08:00:49;8.25;;;6.10;;
12756;SDS011;31601;48.042;12.240;2023-06-10T08:03:15;8.23;;;6.00;;
12756;SDS011;31601;48.042;12.240;2023-06-10T08:05:42;6.60;;;6.00;;
12756;SDS011;31601;48.042;12.240;2023-06-10T08:08:08;6.40;;;5.80;;
12756;SDS011;31601;48.042;12.240;2023-06-10T08:10:36;5.68;;;5.10;;
12756;SDS011;31601;48.042;12.240;2023-06-10T08:13:02;8.98;;;5.25;;
12756;SDS011;31601;48.042;12.240;2023-06-10T08:15:29;6.85;;;5.60;;
12756;SDS011;31601;48.042;12.240;2023-06-10T08:17:55;5.57;;;4.55;;
12756;SDS011;31601;48.042;12.240;2023-06-10T08:20:22;5.30;;;4.80;;
12756;SDS011;31601;48.042;12.240;2023-06-10T08:22:48;5.25;;;4.72;;
12756;SDS011;31601;48.042;12.240;2023-06-10T08:25:15;24.02;;;6.13;;
12756;SDS011;31601;48.042;12.240;2023-06-10T08:27:43;11.82;;;5.43;;
12756;SDS011;31601;48.042;12.240;2023-06-10T08:30:09;6.13;;;5.10;;
12756;SDS011;31601;48.042;12.240;2023-06-10T08:32:38;5.80;;;5.20;;
12756;SDS011;31601;48.042;12.240;2023-06-10T08:35:04;7.82;;;4.45;;
12756;SDS011;31601;48.042;12.240;2023-06-10T08:37:31;6.28;;;5.07;;
12756;SDS011;31601;48.042;12.240;2023-06-10T08:39:57;6.50;;;5.03;;
12756;SDS011;31601;48.042;12.240;2023-06-10T08:42:24;5.10;;;4.50;;
12756;SDS011;31601;48.042;12.240;2023-06-10T08:44:55;5.82;;;5.20;;
12756;SDS011;31601;48.042;12.240;2023-06-10T08:47:22;13.80;;;5.53;;
12756;SDS011;31601;48.042;12.240;2023-06-10T08:49:50;5.03;;;4.53;;
12756;SDS011;31601;48.042;12.240;2023-06-10T08:52:19;6.00;;;4.82;;
12756;SDS011;31601;48.042;12.240;2023-06-10T08:54:48;5.50;;;4.88;;
12756;SDS011;31601;48.042;12.240;2023-06-10T08:57:17;4.82;;;4.03;;
12756;SDS011;31601;48.042;12.240;2023-06-10T08:59:45;5.78;;;4.63;;
12756;SDS011;31601;48.042;12.240;2023-06-10T09:02:13;8.30;;;4.20;;
12756;SDS011;31601;48.042;12.240;2023-06-10T09:04:41;4.88;;;4.38;;
12756;SDS011;31601;48.042;12.240;2023-06-10T09:07:10;5.72;;;4.40;;
12756;SDS011;31601;48.042;12.240;2023-06-10T09:09:36;7.13;;;4.53;;
12756;SDS011;31601;48.042;12.240;2023-06-10T09:12:04;8.90;;;4.95;;
12756;SDS011;31601;48.042;12.240;2023-06-10T09:14:31;8.18;;;4.20;;
12756;SDS011;31601;48.042;12.240;2023-06-10T09:16:57;6.65;;;4.80;;
12756;SDS011;31601;48.042;12.240;2023-06-10T09:19:25;5.38;;;4.63;;
12756;SDS011;31601;48.042;12.240;2023-06-10T09:21:54;5.60;;;4.43;;
12756;SDS011;31601;48.042;12.240;2023-06-10T09:24:21;4.78;;;4.30;;
12756;SDS011;31601;48.042;12.240;2023-06-10T09:26:48;4.95;;;3.70;;
12756;SDS011;31601;48.042;12.240;2023-06-10T09:29:16;4.78;;;4.38;;
12756;SDS011;31601;48.042;12.240;2023-06-10T09:31:43;4.40;;;4.00;;
12756;SDS011;31601;48.042;12.240;2023-06-10T09:34:10;5.75;;;4.32;;
12756;SDS011;31601;48.042;12.240;2023-06-10T09:36:39;4.85;;;3.67;;
12756;SDS011;31601;48.042;12.240;2023-06-10T09:39:13;3.72;;;3.42;;
12756;SDS011;31601;48.042;12.240;2023-06-10T09:41:41;3.72;;;3.42;;
12756;SDS011;31601;48.042;12.240;2023-06-10T09:44:09;4.93;;;3.75;;
12756;SDS011;31601;48.042;12.240;2023-06-10T09:46:38;4.53;;;3.63;;
12756;SDS011;31601;48.042;12.240;2023-06-10T09:49:04;4.35;;;3.95;;
12756;SDS011;31601;48.042;12.240;2023-06-10T09:51:31;4.03;;;3.63;;
12756;SDS011;31601;48.042;12.240;2023-06-10T09:53:59;4.40;;;3.70;;
12756;SDS011;31601;48.042;12.240;2023-06-10T09:56:32;3.97;;;3.55;;
12756;SDS011;31601;48.042;12.240;2023-06-10T09:59:00;3.80;;;3.40;;
12756;SDS011;31601;48.042;12.240;2023-06-10T10:01:26;3.80;;;3.13;;
12756;SDS011;31601;48.042;12.240;2023-06-10T10:03:53;4.30;;;3.15;;
12756;SDS011;31601;48.042;12.240;2023-06-10T10:06:20;3.70;;;3.40;;
12756;SDS011;31601;48.042;12.240;2023-06-10T10:08:47;3.30;;;3.03;;
12756;SDS011;31601;48.042;12.240;2023-06-10T10:11:17;3.60;;;2.70;;
12756;SDS011;31601;48.042;12.240;2023-06-10T10:13:44;5.47;;;3.20;;
12756;SDS011;31601;48.042;12.240;2023-06-10T10:16:14;3.97;;;3.40;;
12756;SDS011;31601;48.042;12.240;2023-06-10T10:18:43;3.70;;;3.40;;
12756;SDS011;31601;48.042;12.240;2023-06-10T10:21:13;3.75;;;3.25;;
12756;SDS011;31601;48.042;12.240;2023-06-10T10:23:43;4.60;;;3.28;;
12756;SDS011;31601;48.042;12.240;2023-06-10T10:26:17;3.10;;;2.80;;
12756;SDS011;31601;48.042;12.240;2023-06-10T10:28:47;3.53;;;3.22;;
12756;SDS011;31601;48.042;12.240;2023-06-10T10:31:20;3.88;;;2.90;;
12756;SDS011;31601;48.042;12.240;2023-06-10T10:33:50;4.13;;;2.83;;
12756;SDS011;31601;48.042;12.240;2023-06-10T10:36:21;3.45;;;3.15;;
12756;SDS011;31601;48.042;12.240;2023-06-10T10:38:48;4.63;;;2.88;;
12756;SDS011;31601;48.042;12.240;2023-06-10T10:41:15;3.92;;;3.00;;
12756;SDS011;31601;48.042;12.240;2023-06-10T10:43:43;3.00;;;2.70;;
12756;SDS011;31601;48.042;12.240;2023-06-10T10:46:11;3.22;;;2.92;;
12756;SDS011;31601;48.042;12.240;2023-06-10T10:48:39;5.28;;;3.33;;
12756;SDS011;31601;48.042;12.240;2023-06-10T10:51:06;4.57;;;3.50;;
12756;SDS011;31601;48.042;12.240;2023-06-10T10:53:32;4.95;;;3.10;;
12756;SDS011;31601;48.042;12.240;2023-06-10T10:55:59;4.03;;;3.30;;
12756;SDS011;31601;48.042;12.240;2023-06-10T10:58:30;3.58;;;3.28;;
12756;SDS011;31601;48.042;12.240;2023-06-10T11:00:58;3.92;;;3.20;;
12756;SDS011;31601;48.042;12.240;2023-06-10T11:03:27;3.70;;;3.38;;
12756;SDS011;31601;48.042;12.240;2023-06-10T11:05:56;4.60;;;3.80;;
12756;SDS011;31601;48.042;12.240;2023-06-10T11:11:18;4.47;;;3.10;;
12756;SDS011;31601;48.042;12.240;2023-06-10T11:13:57;4.70;;;2.97;;
12756;SDS011;31601;48.042;12.240;2023-06-10T11:16:27;4.20;;;3.03;;
12756;SDS011;31601;48.042;12.240;2023-06-10T11:18:54;3.03;;;2.80;;
12756;SDS011;31601;48.042;12.240;2023-06-10T11:21:22;4.78;;;2.97;;
12756;SDS011;31601;48.042;12.240;2023-06-10T11:23:49;3.92;;;3.42;;
12756;SDS011;31601;48.042;12.240;2023-06-10T11:26:20;5.95;;;3.20;;
12756;SDS011;31601;48.042;12.240;2023-06-10T11:29:01;4.70;;;3.60;;
12756;SDS011;31601;48.042;12.240;2023-06-10T11:31:37;3.85;;;3.50;;
12756;SDS011;31601;48.042;12.240;2023-06-10T11:34:07;4.63;;;3.78;;
12756;SDS011;31601;48.042;12.240;2023-06-10T11:36:36;4.13;;;3.83;;
12756;SDS011;31601;48.042;12.240;2023-06-10T11:39:07;4.22;;;3.83;;
12756;SDS011;31601;48.042;12.240;2023-06-10T11:41:34;5.93;;;4.03;;
12756;SDS011;31601;48.042;12.240;2023-06-10T11:44:02;4.60;;;4.13;;
12756;SDS011;31601;48.042;12.240;2023-06-10T11:46:30;4.68;;;4.28;;
12756;SDS011;31601;48.042;12.240;2023-06-10T11:48:58;4.57;;;4.18;;
12756;SDS011;31601;48.042;12.240;2023-06-10T11:51:27;5.07;;;4.32;;
12756;SDS011;31601;48.042;12.240;2023-06-10T11:53:55;7.20;;;4.15;;
12756;SDS011;31601;48.042;12.240;2023-06-10T11:56:22;4.50;;;4.10;;
12756;SDS011;31601;48.042;12.240;2023-06-10T11:58:52;5.22;;;4.35;;
12756;SDS011;31601;48.042;12.240;2023-06-10T12:01:20;6.15;;;4.90;;
12756;SDS011;31601;48.042;12.240;2023-06-10T12:03:47;5.18;;;4.35;;
12756;SDS011;31601;48.042;12.240;2023-06-10T12:06:23;5.10;;;3.85;;
12756;SDS011;31601;48.042;12.240;2023-06-10T12:08:50;4.97;;;3.85;;
12756;SDS011;31601;48.042;12.240;2023-06-10T12:11:16;4.07;;;3.70;;
12756;SDS011;31601;48.042;12.240;2023-06-10T12:13:45;4.10;;;3.70;;
12756;SDS011;31601;48.042;12.240;2023-06-10T12:16:14;4.68;;;3.33;;
12756;SDS011;31601;48.042;12.240;2023-06-10T12:18:42;4.07;;;2.92;;
12756;SDS011;31601;48.042;12.240;2023-06-10T12:21:16;3.55;;;3.25;;
12756;SDS011;31601;48.042;12.240;2023-06-10T12:26:37;2.85;;;2.63;;
12756;SDS011;31601;48.042;12.240;2023-06-10T12:29:18;5.40;;;3.20;;
12756;SDS011;31601;48.042;12.240;2023-06-10T12:31:55;2.83;;;2.55;;
12756;SDS011;31601;48.042;12.240;2023-06-10T12:34:32;8.07;;;3.50;;
12756;SDS011;31601;48.042;12.240;2023-06-10T12:37:00;2.75;;;2.55;;
12756;SDS011;31601;48.042;12.240;2023-06-10T12:39:30;3.65;;;2.60;;
12756;SDS011;31601;48.042;12.240;2023-06-10T12:41:57;2.50;;;2.30;;
12756;SDS011;31601;48.042;12.240;2023-06-10T12:44:30;4.35;;;2.90;;
12756;SDS011;31601;48.042;12.240;2023-06-10T12:46:57;3.72;;;2.90;;
12756;SDS011;31601;48.042;12.240;2023-06-10T12:49:24;3.30;;;3.00;;
12756;SDS011;31601;48.042;12.240;2023-06-10T12:51:51;3.35;;;2.92;;
12756;SDS011;31601;48.042;12.240;2023-06-10T12:54:18;3.03;;;2.72;;
12756;SDS011;31601;48.042;12.240;2023-06-10T12:56:45;3.85;;;2.90;;
12756;SDS011;31601;48.042;12.240;2023-06-10T12:59:12;2.88;;;2.60;;
12756;SDS011;31601;48.042;12.240;2023-06-10T13:01:39;2.75;;;2.53;;
12756;SDS011;31601;48.042;12.240;2023-06-10T13:04:05;2.38;;;2.28;;
12756;SDS011;31601;48.042;12.240;2023-06-10T13:06:32;3.22;;;2.50;;
12756;SDS011;31601;48.042;12.240;2023-06-10T13:09:01;3.55;;;2.60;;
12756;SDS011;31601;48.042;12.240;2023-06-10T13:11:28;6.78;;;2.60;;
12756;SDS011;31601;48.042;12.240;2023-06-10T13:13:56;2.88;;;2.67;;
12756;SDS011;31601;48.042;12.240;2023-06-10T13:16:22;3.08;;;2.40;;
12756;SDS011;31601;48.042;12.240;2023-06-10T13:18:49;11.30;;;3.20;;
12756;SDS011;31601;48.042;12.240;2023-06-10T13:21:15;4.05;;;3.08;;
12756;SDS011;31601;48.042;12.240;2023-06-10T13:23:43;3.72;;;3.00;;
12756;SDS011;31601;48.042;12.240;2023-06-10T13:26:11;3.97;;;2.80;;
12756;SDS011;31601;48.042;12.240;2023-06-10T13:28:37;3.28;;;2.78;;
12756;SDS011;31601;48.042;12.240;2023-06-10T13:31:05;3.08;;;2.78;;
12756;SDS011;31601;48.042;12.240;2023-06-10T13:33:32;5.30;;;2.83;;
12756;SDS011;31601;48.042;12.240;2023-06-10T13:35:58;7.38;;;2.70;;
12756;SDS011;31601;48.042;12.240;2023-06-10T13:38:25;3.30;;;3.00;;
12756;SDS011;31601;48.042;12.240;2023-06-10T13:40:51;3.80;;;3.20;;
12756;SDS011;31601;48.042;12.240;2023-06-10T13:43:18;4.03;;;3.65;;
12756;SDS011;31601;48.042;12.240;2023-06-10T13:45:44;3.33;;;3.05;;
12756;SDS011;31601;48.042;12.240;2023-06-10T13:48:12;3.72;;;3.42;;
12756;SDS011;31601;48.042;12.240;2023-06-10T13:50:39;4.35;;;3.95;;
12756;SDS011;31601;48.042;12.240;2023-06-10T13:53:05;5.00;;;3.70;;
12756;SDS011;31601;48.042;12.240;2023-06-10T13:55:31;5.25;;;4.20;;
12756;SDS011;31601;48.042;12.240;2023-06-10T13:57:58;4.68;;;3.85;;
12756;SDS011;31601;48.042;12.240;2023-06-10T14:00:24;4.65;;;3.90;;
12756;SDS011;31601;48.042;12.240;2023-06-10T14:02:52;4.45;;;4.03;;
12756;SDS011;31601;48.042;12.240;2023-06-10T14:05:20;4.55;;;3.72;;
12756;SDS011;31601;48.042;12.240;2023-06-10T14:07:46;5.97;;;3.95;;
12756;SDS011;31601;48.042;12.240;2023-06-10T14:10:12;4.53;;;4.13;;
12756;SDS011;31601;48.042;12.240;2023-06-10T14:12:39;3.85;;;3.53;;
12756;SDS011;31601;48.042;12.240;2023-06-10T14:15:06;4.85;;;4.13;;
12756;SDS011;31601;48.042;12.240;2023-06-10T14:17:33;4.38;;;3.60;;
12756;SDS011;31601;48.042;12.240;2023-06-10T14:19:59;3.78;;;3.47;;
12756;SDS011;31601;48.042;12.240;2023-06-10T14:22:27;5.93;;;3.80;;
12756;SDS011;31601;48.042;12.240;2023-06-10T14:24:53;3.75;;;3.38;;
12756;SDS011;31601;48.042;12.240;2023-06-10T14:27:20;4.45;;;4.05;;
12756;SDS011;31601;48.042;12.240;2023-06-10T14:29:46;4.60;;;3.55;;
12756;SDS011;31601;48.042;12.240;2023-06-10T14:32:13;4.38;;;3.97;;
12756;SDS011;31601;48.042;12.240;2023-06-10T14:34:39;4.32;;;3.92;;
12756;SDS011;31601;48.042;12.240;2023-06-10T14:37:07;4.30;;;3.90;;
12756;SDS011;31601;48.042;12.240;2023-06-10T14:39:34;3.90;;;3.60;;